• Join FlightAware (Why Join?)
  • Login
  • US Flag GB Flag 
16:02 EDT


 

Airport Tracker/Info


-or-


 

Live Flight TrackerFlight Track Log ✈ USC105 ✈ 10-May-2013 ✈ KYIP - KLCK

Flight Track Log - Related Links

Times and Time Zones

All times are in EDT time to prevent confusion due to time zone crossing. See the USC105 flight status page for this flight to view local times or setup timezone preferences in your user account.

Time Position Orientation Groundspeed Altitude Reporting Facility
EDT Latitude Longitude Course Direction KTS MPH feet Rate Location/Type
06:55 42.2083 -83.5883 238° Southwest 98 113 2,700  Level Cleveland Center
06:56 42.1867 -83.6153 223° Southwest 102 117 3,800 360 Climbing Cleveland Center
07:06 41.8170 -83.4226 167° South  Level Estimated
07:11 41.5389 -83.4294 166° South 187 215 9,000  Level Cleveland Center
07:12 41.4872 -83.4161 169° South 187 215 9,000  Level Cleveland Center
07:13 41.5106 -83.3449 171° South  Level Estimated
07:13 41.4375 -83.4000 166° South 180 207 9,000  Level Cleveland Center
07:14 41.4674 -83.3302 166° South  Level FlightAware Approximate
07:14 41.3919 -83.3869 168° South 185 213 9,000  Level Cleveland Center
07:15 41.4243 -83.3155 166° South  Level FlightAware Approximate
07:15 41.3486 -83.3714 165° South 192 221 9,000  Level Cleveland Center
07:16 41.2989 -83.3581 169° South 187 215 9,100  Climbing Cleveland Center
07:17 41.2492 -83.3422 167° South 182 209 9,000 -60 Descending Cleveland Center
07:18 41.1994 -83.3292 169° South 182 209 9,000  Level Cleveland Center
07:19 41.1475 -83.3158 169° South 182 209 9,100 -360 Climbing Cleveland Center
07:20 41.0961 -83.2944 163° South 182 209 8,300 -60 Descending Cleveland Center
07:21 41.0442 -83.2839 171° South 182 209 9,000 300 Climbing Cleveland Center
07:22 40.9967 -83.2656 164° South 182 209 9,000  Level Cleveland Center
07:23 40.9428 -83.2522 169° South 182 209 9,000  Level Cleveland Center
07:24 40.8950 -83.2394 169° South 182 209 9,000  Level Cleveland Center
07:25 40.8433 -83.2236 167° South 182 209 9,000  Level Cleveland Center
07:26 40.7914 -83.2106 169° South 182 209 9,000  Level Cleveland Center
07:27 40.7481 -83.1978 167° South 182 209 9,000  Level Cleveland Center
07:28 40.6961 -83.1822 167° South 182 209 9,000  Level Cleveland Center
07:30 40.6022 -83.1542 167° South 185 213 9,100  Climbing Indianapolis Center
07:31 40.5522 -83.1400 168° South 183 211 9,100  Level Indianapolis Center
07:31 40.5069 -83.1272 168° South 184 212 9,100  Level Indianapolis Center
07:32 40.4956 -83.1231 164° South 185 213 9,100  Level Indianapolis Center
07:32 40.4575 -83.1131 169° South 185 213 9,100  Level Indianapolis Center
07:33 40.4450 -83.1092 167° South 183 211 9,100  Level Indianapolis Center
07:33 40.4083 -83.0992 168° South 182 209 9,100  Level Indianapolis Center
07:34 40.3953 -83.0947 165° South 182 209 9,100  Level Indianapolis Center
07:34 40.3547 -83.0847 169° South 181 208 9,100  Level Indianapolis Center
07:35 40.3461 -83.0817 165° South 179 206 9,100 -240 Level Indianapolis Center
07:35 40.3078 -83.0708 168° South 178 205 8,900 -420 Descending Indianapolis Center
07:36 40.2967 -83.0667 164° South 180 207 8,700 -720 Descending Indianapolis Center
07:36 40.2542 -83.0564 170° South 193 222 8,200 -600 Descending Indianapolis Center
07:37 40.2439 -83.0531 166° South 190 219 8,100 -840 Descending Indianapolis Center
07:37 40.1986 -83.0417 169° South 202 232 7,400 -1,020 Descending Indianapolis Center
07:38 40.1889 -83.0361 156° South 199 229 7,100 -1,200 Descending Indianapolis Center
07:38 40.1433 -83.0244 169° South 205 236 6,200 -1,080 Descending Indianapolis Center
07:39 40.1317 -83.0200 164° South 206 237 6,000 -1,020 Descending Indianapolis Center
07:39 40.0900 -83.0100 170° South 198 228 5,200 -1,020 Descending Indianapolis Center
07:40 40.0772 -83.0056 165° South 200 230 5,000 -840 Descending Indianapolis Center
07:40 40.0364 -82.9958 170° South 189 217 4,400 -840 Descending Indianapolis Center
07:41 40.0250 -82.9906 160° South 195 224 4,200 -600 Descending Indianapolis Center
07:41 39.9850 -82.9817 170° South 185 213 3,800 -600 Descending Indianapolis Center
07:42 39.9736 -82.9758 159° South 190 219 3,600 -720 Descending Indianapolis Center
07:42 39.9414 -82.9494 148° Southeast 208 239 3,100 -600 Descending Indianapolis Center
07:43 39.9308 -82.9356 135° Southeast 191 220 3,000 -720 Descending Indianapolis Center
07:43 39.8981 -82.9064 146° Southeast 192 221 2,400 -1,020 Descending Indianapolis Center
07:44 39.8786 -82.8897 147° Southeast 191 220 2,000 -720 Descending Indianapolis Center
07:45 39.8489 -82.8900 180° South 188 216 1,700 -720 Descending Indianapolis Center
07:45 39.8378 -82.8975 207° Southwest 160 184 1,300 -360 Descending Indianapolis Center
07:46 39.8122 -82.9264 221° Southwest 154 177 1,200 -120 Descending Indianapolis Center
07:48 39.8138 -82.9278 North  Level Estimated